sensor_id;sensor_type;location;lat;lon;timestamp;P1;durP1;ratioP1;P2;durP2;ratioP2
80320;SDS011;69633;47.066;15.450;2024-03-02T00:01:26;52.47;;;19.85;;
80320;SDS011;69633;47.066;15.450;2024-03-02T00:03:52;47.35;;;18.35;;
80320;SDS011;69633;47.066;15.450;2024-03-02T00:06:22;53.25;;;19.33;;
80320;SDS011;69633;47.066;15.450;2024-03-02T00:08:49;53.97;;;21.70;;
80320;SDS011;69633;47.066;15.450;2024-03-02T00:11:16;56.38;;;22.35;;
80320;SDS011;69633;47.066;15.450;2024-03-02T00:13:44;46.72;;;19.65;;
80320;SDS011;69633;47.066;15.450;2024-03-02T00:16:13;48.83;;;21.05;;
80320;SDS011;69633;47.066;15.450;2024-03-02T00:18:40;47.28;;;19.75;;
80320;SDS011;69633;47.066;15.450;2024-03-02T00:21:06;49.30;;;18.90;;
80320;SDS011;69633;47.066;15.450;2024-03-02T00:26:03;46.35;;;20.05;;
80320;SDS011;69633;47.066;15.450;2024-03-02T00:31:19;49.10;;;17.75;;
80320;SDS011;69633;47.066;15.450;2024-03-02T00:33:46;51.30;;;20.90;;
80320;SDS011;69633;47.066;15.450;2024-03-02T00:36:14;43.78;;;18.15;;
80320;SDS011;69633;47.066;15.450;2024-03-02T00:38:49;52.33;;;19.65;;
80320;SDS011;69633;47.066;15.450;2024-03-02T00:41:21;52.50;;;19.92;;
80320;SDS011;69633;47.066;15.450;2024-03-02T00:46:42;47.58;;;18.48;;
80320;SDS011;69633;47.066;15.450;2024-03-02T00:51:37;47.28;;;19.17;;
80320;SDS011;69633;47.066;15.450;2024-03-02T00:54:07;51.22;;;19.38;;
80320;SDS011;69633;47.066;15.450;2024-03-02T00:56:34;48.78;;;19.90;;
80320;SDS011;69633;47.066;15.450;2024-03-02T00:59:04;47.63;;;19.00;;
80320;SDS011;69633;47.066;15.450;2024-03-02T01:01:31;52.33;;;20.60;;
80320;SDS011;69633;47.066;15.450;2024-03-02T01:03:58;46.05;;;18.45;;
80320;SDS011;69633;47.066;15.450;2024-03-02T01:06:25;48.50;;;18.42;;
80320;SDS011;69633;47.066;15.450;2024-03-02T01:08:50;73.45;;;27.48;;
80320;SDS011;69633;47.066;15.450;2024-03-02T01:11:17;46.92;;;18.77;;
80320;SDS011;69633;47.066;15.450;2024-03-02T01:13:44;47.67;;;18.10;;
80320;SDS011;69633;47.066;15.450;2024-03-02T01:16:14;42.92;;;17.63;;
80320;SDS011;69633;47.066;15.450;2024-03-02T01:18:41;46.95;;;17.25;;
80320;SDS011;69633;47.066;15.450;2024-03-02T01:21:09;43.78;;;17.67;;
80320;SDS011;69633;47.066;15.450;2024-03-02T01:23:36;45.88;;;16.27;;
80320;SDS011;69633;47.066;15.450;2024-03-02T01:26:04;40.72;;;16.42;;
80320;SDS011;69633;47.066;15.450;2024-03-02T01:28:31;41.70;;;16.27;;
80320;SDS011;69633;47.066;15.450;2024-03-02T01:30:56;45.40;;;17.23;;
80320;SDS011;69633;47.066;15.450;2024-03-02T01:33:21;47.28;;;17.15;;
80320;SDS011;69633;47.066;15.450;2024-03-02T01:35:48;43.40;;;15.70;;
80320;SDS011;69633;47.066;15.450;2024-03-02T01:38:14;40.20;;;16.67;;
80320;SDS011;69633;47.066;15.450;2024-03-02T01:40:41;44.58;;;16.65;;
80320;SDS011;69633;47.066;15.450;2024-03-02T01:43:07;47.67;;;21.38;;
80320;SDS011;69633;47.066;15.450;2024-03-02T01:45:35;76.15;;;31.65;;
80320;SDS011;69633;47.066;15.450;2024-03-02T01:48:06;48.03;;;15.85;;
80320;SDS011;69633;47.066;15.450;2024-03-02T01:50:35;43.22;;;15.95;;
80320;SDS011;69633;47.066;15.450;2024-03-02T01:53:02;45.72;;;17.63;;
80320;SDS011;69633;47.066;15.450;2024-03-02T01:55:29;42.42;;;14.60;;
80320;SDS011;69633;47.066;15.450;2024-03-02T01:57:56;40.65;;;16.65;;
80320;SDS011;69633;47.066;15.450;2024-03-02T02:00:22;42.47;;;16.38;;
80320;SDS011;69633;47.066;15.450;2024-03-02T02:02:52;41.45;;;16.48;;
80320;SDS011;69633;47.066;15.450;2024-03-02T02:05:19;46.38;;;16.88;;
80320;SDS011;69633;47.066;15.450;2024-03-02T02:07:46;45.13;;;16.25;;
80320;SDS011;69633;47.066;15.450;2024-03-02T02:10:13;41.70;;;17.35;;
80320;SDS011;69633;47.066;15.450;2024-03-02T02:12:39;46.22;;;17.60;;
80320;SDS011;69633;47.066;15.450;2024-03-02T02:17:51;41.40;;;16.02;;
80320;SDS011;69633;47.066;15.450;2024-03-02T02:20:18;43.42;;;16.13;;
80320;SDS011;69633;47.066;15.450;2024-03-02T02:22:56;35.13;;;15.45;;
80320;SDS011;69633;47.066;15.450;2024-03-02T02:25:42;44.50;;;15.93;;
80320;SDS011;69633;47.066;15.450;2024-03-02T02:28:08;41.58;;;16.02;;
80320;SDS011;69633;47.066;15.450;2024-03-02T02:30:34;43.50;;;17.15;;
80320;SDS011;69633;47.066;15.450;2024-03-02T02:32:59;40.58;;;14.55;;
80320;SDS011;69633;47.066;15.450;2024-03-02T02:35:26;41.15;;;15.70;;
80320;SDS011;69633;47.066;15.450;2024-03-02T02:37:53;45.50;;;16.40;;
80320;SDS011;69633;47.066;15.450;2024-03-02T02:40:25;41.33;;;16.40;;
80320;SDS011;69633;47.066;15.450;2024-03-02T02:42:52;40.28;;;15.85;;
80320;SDS011;69633;47.066;15.450;2024-03-02T02:45:17;41.38;;;16.67;;
80320;SDS011;69633;47.066;15.450;2024-03-02T02:47:43;41.45;;;16.77;;
80320;SDS011;69633;47.066;15.450;2024-03-02T02:50:11;46.30;;;17.08;;
80320;SDS011;69633;47.066;15.450;2024-03-02T02:52:38;39.05;;;15.73;;
80320;SDS011;69633;47.066;15.450;2024-03-02T02:55:06;42.78;;;16.10;;
80320;SDS011;69633;47.066;15.450;2024-03-02T02:57:35;46.05;;;16.40;;
80320;SDS011;69633;47.066;15.450;2024-03-02T03:00:07;42.40;;;15.07;;
80320;SDS011;69633;47.066;15.450;2024-03-02T03:02:52;44.20;;;16.70;;
80320;SDS011;69633;47.066;15.450;2024-03-02T03:05:19;43.53;;;16.40;;
80320;SDS011;69633;47.066;15.450;2024-03-02T03:07:45;44.78;;;15.98;;
80320;SDS011;69633;47.066;15.450;2024-03-02T03:10:12;41.85;;;15.98;;
80320;SDS011;69633;47.066;15.450;2024-03-02T03:12:39;48.47;;;17.60;;
80320;SDS011;69633;47.066;15.450;2024-03-02T03:15:08;42.92;;;16.17;;
80320;SDS011;69633;47.066;15.450;2024-03-02T03:17:36;40.17;;;16.67;;
80320;SDS011;69633;47.066;15.450;2024-03-02T03:20:03;41.22;;;14.73;;
80320;SDS011;69633;47.066;15.450;2024-03-02T03:22:30;48.40;;;16.50;;
80320;SDS011;69633;47.066;15.450;2024-03-02T03:25:00;47.15;;;16.70;;
80320;SDS011;69633;47.066;15.450;2024-03-02T03:27:26;47.60;;;16.77;;
80320;SDS011;69633;47.066;15.450;2024-03-02T03:29:52;41.55;;;15.95;;
80320;SDS011;69633;47.066;15.450;2024-03-02T03:32:21;42.72;;;15.27;;
80320;SDS011;69633;47.066;15.450;2024-03-02T03:34:48;42.00;;;16.23;;
80320;SDS011;69633;47.066;15.450;2024-03-02T03:37:16;42.85;;;15.27;;
80320;SDS011;69633;47.066;15.450;2024-03-02T03:39:43;38.30;;;15.52;;
80320;SDS011;69633;47.066;15.450;2024-03-02T03:42:10;52.28;;;16.25;;
80320;SDS011;69633;47.066;15.450;2024-03-02T03:44:36;39.88;;;15.27;;
80320;SDS011;69633;47.066;15.450;2024-03-02T03:47:02;43.88;;;17.75;;
80320;SDS011;69633;47.066;15.450;2024-03-02T03:49:28;48.15;;;16.10;;
80320;SDS011;69633;47.066;15.450;2024-03-02T03:51:55;37.17;;;14.65;;
80320;SDS011;69633;47.066;15.450;2024-03-02T03:54:21;37.45;;;15.20;;
80320;SDS011;69633;47.066;15.450;2024-03-02T03:56:48;37.42;;;15.20;;
80320;SDS011;69633;47.066;15.450;2024-03-02T03:59:14;40.08;;;16.52;;
80320;SDS011;69633;47.066;15.450;2024-03-02T04:01:40;38.75;;;15.48;;
80320;SDS011;69633;47.066;15.450;2024-03-02T04:04:05;40.80;;;15.43;;
80320;SDS011;69633;47.066;15.450;2024-03-02T04:06:32;46.10;;;16.80;;
80320;SDS011;69633;47.066;15.450;2024-03-02T04:08:58;38.22;;;14.25;;
80320;SDS011;69633;47.066;15.450;2024-03-02T04:11:25;44.10;;;16.08;;
80320;SDS011;69633;47.066;15.450;2024-03-02T04:13:52;43.65;;;17.60;;
80320;SDS011;69633;47.066;15.450;2024-03-02T04:16:18;38.97;;;16.10;;
80320;SDS011;69633;47.066;15.450;2024-03-02T04:18:45;43.67;;;15.70;;
80320;SDS011;69633;47.066;15.450;2024-03-02T04:21:11;39.08;;;14.90;;
80320;SDS011;69633;47.066;15.450;2024-03-02T04:23:36;33.80;;;14.15;;
80320;SDS011;69633;47.066;15.450;2024-03-02T04:26:05;38.63;;;14.93;;
80320;SDS011;69633;47.066;15.450;2024-03-02T04:28:31;40.28;;;15.20;;
80320;SDS011;69633;47.066;15.450;2024-03-02T04:30:57;45.58;;;14.70;;
80320;SDS011;69633;47.066;15.450;2024-03-02T04:33:24;36.13;;;13.70;;
80320;SDS011;69633;47.066;15.450;2024-03-02T04:35:51;39.50;;;14.90;;
80320;SDS011;69633;47.066;15.450;2024-03-02T04:38:16;38.15;;;14.43;;
80320;SDS011;69633;47.066;15.450;2024-03-02T04:40:42;35.80;;;14.25;;
80320;SDS011;69633;47.066;15.450;2024-03-02T04:43:09;37.25;;;13.80;;
80320;SDS011;69633;47.066;15.450;2024-03-02T04:45:37;35.25;;;14.48;;
80320;SDS011;69633;47.066;15.450;2024-03-02T04:48:05;38.28;;;13.68;;
80320;SDS011;69633;47.066;15.450;2024-03-02T04:50:32;38.78;;;14.38;;
80320;SDS011;69633;47.066;15.450;2024-03-02T04:52:59;42.55;;;14.43;;
80320;SDS011;69633;47.066;15.450;2024-03-02T04:55:24;37.15;;;14.90;;
80320;SDS011;69633;47.066;15.450;2024-03-02T04:58:13;32.30;;;12.68;;
80320;SDS011;69633;47.066;15.450;2024-03-02T05:00:38;35.63;;;13.65;;
80320;SDS011;69633;47.066;15.450;2024-03-02T05:03:04;37.65;;;15.32;;
80320;SDS011;69633;47.066;15.450;2024-03-02T05:05:29;36.28;;;14.63;;
80320;SDS011;69633;47.066;15.450;2024-03-02T05:07:55;33.97;;;13.07;;
80320;SDS011;69633;47.066;15.450;2024-03-02T05:10:22;32.03;;;12.65;;
80320;SDS011;69633;47.066;15.450;2024-03-02T05:12:49;39.60;;;14.82;;
80320;SDS011;69633;47.066;15.450;2024-03-02T05:15:26;36.53;;;14.07;;
80320;SDS011;69633;47.066;15.450;2024-03-02T05:17:53;35.05;;;13.13;;
80320;SDS011;69633;47.066;15.450;2024-03-02T05:20:19;36.30;;;14.52;;
80320;SDS011;69633;47.066;15.450;2024-03-02T05:22:46;37.72;;;12.90;;
80320;SDS011;69633;47.066;15.450;2024-03-02T05:25:13;34.97;;;13.25;;
80320;SDS011;69633;47.066;15.450;2024-03-02T05:27:39;36.88;;;12.70;;
80320;SDS011;69633;47.066;15.450;2024-03-02T05:30:07;31.85;;;11.98;;
80320;SDS011;69633;47.066;15.450;2024-03-02T05:32:34;33.65;;;12.73;;
80320;SDS011;69633;47.066;15.450;2024-03-02T05:35:01;33.42;;;13.30;;
80320;SDS011;69633;47.066;15.450;2024-03-02T05:37:29;37.22;;;14.05;;
80320;SDS011;69633;47.066;15.450;2024-03-02T05:39:55;36.42;;;15.23;;
80320;SDS011;69633;47.066;15.450;2024-03-02T05:42:21;34.08;;;12.68;;
80320;SDS011;69633;47.066;15.450;2024-03-02T05:44:47;35.85;;;15.45;;
80320;SDS011;69633;47.066;15.450;2024-03-02T05:47:13;37.83;;;14.68;;
80320;SDS011;69633;47.066;15.450;2024-03-02T05:49:39;33.85;;;12.70;;
80320;SDS011;69633;47.066;15.450;2024-03-02T05:52:07;34.58;;;13.25;;
80320;SDS011;69633;47.066;15.450;2024-03-02T05:54:33;33.08;;;12.95;;
80320;SDS011;69633;47.066;15.450;2024-03-02T05:56:59;33.38;;;12.30;;
80320;SDS011;69633;47.066;15.450;2024-03-02T05:59:45;33.60;;;12.63;;
80320;SDS011;69633;47.066;15.450;2024-03-02T06:02:10;35.90;;;12.57;;
80320;SDS011;69633;47.066;15.450;2024-03-02T06:04:37;32.25;;;13.38;;
80320;SDS011;69633;47.066;15.450;2024-03-02T06:07:03;30.40;;;13.10;;
80320;SDS011;69633;47.066;15.450;2024-03-02T06:09:30;28.80;;;11.63;;
80320;SDS011;69633;47.066;15.450;2024-03-02T06:11:56;34.88;;;12.40;;
80320;SDS011;69633;47.066;15.450;2024-03-02T06:14:21;33.65;;;12.82;;
80320;SDS011;69633;47.066;15.450;2024-03-02T06:16:48;28.95;;;11.85;;
80320;SDS011;69633;47.066;15.450;2024-03-02T06:19:15;34.67;;;12.40;;
80320;SDS011;69633;47.066;15.450;2024-03-02T06:21:42;30.73;;;12.70;;
80320;SDS011;69633;47.066;15.450;2024-03-02T06:24:07;33.78;;;11.93;;
80320;SDS011;69633;47.066;15.450;2024-03-02T06:26:34;31.85;;;13.13;;
80320;SDS011;69633;47.066;15.450;2024-03-02T06:29:00;31.90;;;12.00;;
80320;SDS011;69633;47.066;15.450;2024-03-02T06:31:28;32.60;;;12.90;;
80320;SDS011;69633;47.066;15.450;2024-03-02T06:33:54;34.80;;;12.20;;
80320;SDS011;69633;47.066;15.450;2024-03-02T06:36:21;30.90;;;11.77;;
80320;SDS011;69633;47.066;15.450;2024-03-02T06:38:46;31.00;;;11.88;;
80320;SDS011;69633;47.066;15.450;2024-03-02T06:41:13;32.78;;;13.32;;
80320;SDS011;69633;47.066;15.450;2024-03-02T06:43:39;35.47;;;12.60;;
80320;SDS011;69633;47.066;15.450;2024-03-02T06:46:05;35.13;;;12.50;;
80320;SDS011;69633;47.066;15.450;2024-03-02T06:48:35;31.80;;;12.45;;
80320;SDS011;69633;47.066;15.450;2024-03-02T06:51:01;38.45;;;12.50;;
80320;SDS011;69633;47.066;15.450;2024-03-02T06:53:28;35.72;;;12.40;;
80320;SDS011;69633;47.066;15.450;2024-03-02T06:55:56;32.67;;;11.52;;
80320;SDS011;69633;47.066;15.450;2024-03-02T06:58:21;30.02;;;11.88;;
80320;SDS011;69633;47.066;15.450;2024-03-02T07:00:48;34.38;;;13.18;;
80320;SDS011;69633;47.066;15.450;2024-03-02T07:03:14;34.50;;;13.05;;
80320;SDS011;69633;47.066;15.450;2024-03-02T07:05:40;38.05;;;13.35;;
80320;SDS011;69633;47.066;15.450;2024-03-02T07:08:06;31.27;;;12.50;;
80320;SDS011;69633;47.066;15.450;2024-03-02T07:10:32;29.42;;;12.02;;
80320;SDS011;69633;47.066;15.450;2024-03-02T07:12:58;32.55;;;12.65;;
80320;SDS011;69633;47.066;15.450;2024-03-02T07:15:24;34.42;;;12.80;;
80320;SDS011;69633;47.066;15.450;2024-03-02T07:17:52;34.60;;;12.45;;
80320;SDS011;69633;47.066;15.450;2024-03-02T07:20:19;36.08;;;12.70;;
80320;SDS011;69633;47.066;15.450;2024-03-02T07:22:44;31.98;;;12.70;;
80320;SDS011;69633;47.066;15.450;2024-03-02T07:25:10;36.88;;;13.70;;
80320;SDS011;69633;47.066;15.450;2024-03-02T07:27:35;30.15;;;12.00;;
80320;SDS011;69633;47.066;15.450;2024-03-02T07:30:02;37.97;;;13.63;;
80320;SDS011;69633;47.066;15.450;2024-03-02T07:32:30;37.38;;;14.00;;
80320;SDS011;69633;47.066;15.450;2024-03-02T07:34:55;29.48;;;12.00;;
80320;SDS011;69633;47.066;15.450;2024-03-02T07:37:22;32.92;;;12.98;;
80320;SDS011;69633;47.066;15.450;2024-03-02T07:39:50;33.53;;;11.98;;
80320;SDS011;69633;47.066;15.450;2024-03-02T07:42:18;34.60;;;13.43;;
80320;SDS011;69633;47.066;15.450;2024-03-02T07:44:46;28.95;;;12.57;;
80320;SDS011;69633;47.066;15.450;2024-03-02T07:47:13;32.33;;;12.70;;
80320;SDS011;69633;47.066;15.450;2024-03-02T07:49:39;32.80;;;12.50;;
80320;SDS011;69633;47.066;15.450;2024-03-02T07:52:06;27.08;;;11.40;;
80320;SDS011;69633;47.066;15.450;2024-03-02T07:54:33;29.98;;;12.90;;
80320;SDS011;69633;47.066;15.450;2024-03-02T07:56:59;31.52;;;12.32;;
80320;SDS011;69633;47.066;15.450;2024-03-02T07:59:26;28.23;;;11.07;;
80320;SDS011;69633;47.066;15.450;2024-03-02T08:01:55;28.83;;;11.77;;
80320;SDS011;69633;47.066;15.450;2024-03-02T08:04:23;31.02;;;11.40;;
80320;SDS011;69633;47.066;15.450;2024-03-02T08:06:50;30.55;;;11.38;;
80320;SDS011;69633;47.066;15.450;2024-03-02T08:09:16;40.33;;;13.52;;
80320;SDS011;69633;47.066;15.450;2024-03-02T08:11:42;32.50;;;13.00;;
80320;SDS011;69633;47.066;15.450;2024-03-02T08:14:08;30.80;;;12.50;;
80320;SDS011;69633;47.066;15.450;2024-03-02T08:16:36;33.20;;;13.15;;
80320;SDS011;69633;47.066;15.450;2024-03-02T08:19:02;30.98;;;11.98;;
80320;SDS011;69633;47.066;15.450;2024-03-02T08:21:30;29.30;;;11.75;;
80320;SDS011;69633;47.066;15.450;2024-03-02T08:23:59;31.98;;;13.15;;
80320;SDS011;69633;47.066;15.450;2024-03-02T08:26:25;29.58;;;14.05;;
80320;SDS011;69633;47.066;15.450;2024-03-02T08:28:54;30.05;;;13.07;;
80320;SDS011;69633;47.066;15.450;2024-03-02T08:31:20;32.13;;;13.18;;
80320;SDS011;69633;47.066;15.450;2024-03-02T08:33:46;35.72;;;13.25;;
80320;SDS011;69633;47.066;15.450;2024-03-02T08:36:17;27.02;;;11.88;;
80320;SDS011;69633;47.066;15.450;2024-03-02T08:38:44;33.05;;;13.60;;
80320;SDS011;69633;47.066;15.450;2024-03-02T08:41:11;26.88;;;11.30;;
80320;SDS011;69633;47.066;15.450;2024-03-02T08:43:42;31.75;;;12.60;;
80320;SDS011;69633;47.066;15.450;2024-03-02T08:46:12;27.63;;;11.93;;
80320;SDS011;69633;47.066;15.450;2024-03-02T08:48:39;28.63;;;11.98;;
80320;SDS011;69633;47.066;15.450;2024-03-02T08:51:06;30.42;;;11.05;;
80320;SDS011;69633;47.066;15.450;2024-03-02T08:53:33;30.05;;;12.07;;
80320;SDS011;69633;47.066;15.450;2024-03-02T08:56:00;28.08;;;11.38;;
80320;SDS011;69633;47.066;15.450;2024-03-02T08:58:26;26.70;;;12.00;;
80320;SDS011;69633;47.066;15.450;2024-03-02T09:00:52;28.55;;;11.60;;
80320;SDS011;69633;47.066;15.450;2024-03-02T09:03:19;32.90;;;12.10;;
80320;SDS011;69633;47.066;15.450;2024-03-02T09:05:44;29.92;;;11.93;;
80320;SDS011;69633;47.066;15.450;2024-03-02T09:08:11;29.23;;;10.50;;
80320;SDS011;69633;47.066;15.450;2024-03-02T09:10:37;29.27;;;11.35;;
80320;SDS011;69633;47.066;15.450;2024-03-02T09:13:04;27.42;;;11.50;;
80320;SDS011;69633;47.066;15.450;2024-03-02T09:15:31;26.10;;;11.18;;
80320;SDS011;69633;47.066;15.450;2024-03-02T09:17:58;26.15;;;10.80;;
80320;SDS011;69633;47.066;15.450;2024-03-02T09:20:23;27.42;;;11.23;;
80320;SDS011;69633;47.066;15.450;2024-03-02T09:22:51;26.48;;;10.68;;
80320;SDS011;69633;47.066;15.450;2024-03-02T09:25:18;26.85;;;10.73;;
80320;SDS011;69633;47.066;15.450;2024-03-02T09:27:44;24.90;;;10.80;;
80320;SDS011;69633;47.066;15.450;2024-03-02T09:30:11;28.80;;;10.85;;
80320;SDS011;69633;47.066;15.450;2024-03-02T09:32:39;30.63;;;11.85;;
80320;SDS011;69633;47.066;15.450;2024-03-02T09:35:04;22.75;;;10.75;;
80320;SDS011;69633;47.066;15.450;2024-03-02T09:37:31;25.00;;;10.60;;
80320;SDS011;69633;47.066;15.450;2024-03-02T09:39:58;26.45;;;10.23;;
80320;SDS011;69633;47.066;15.450;2024-03-02T09:42:24;27.33;;;10.95;;
80320;SDS011;69633;47.066;15.450;2024-03-02T09:44:52;25.48;;;11.02;;
80320;SDS011;69633;47.066;15.450;2024-03-02T09:47:19;24.40;;;10.48;;
80320;SDS011;69633;47.066;15.450;2024-03-02T09:49:46;24.88;;;9.85;;
80320;SDS011;69633;47.066;15.450;2024-03-02T09:52:14;26.52;;;9.70;;
80320;SDS011;69633;47.066;15.450;2024-03-02T09:54:39;27.40;;;11.50;;
80320;SDS011;69633;47.066;15.450;2024-03-02T09:57:06;25.45;;;10.93;;
80320;SDS011;69633;47.066;15.450;2024-03-02T09:59:34;25.25;;;10.60;;
80320;SDS011;69633;47.066;15.450;2024-03-02T10:02:01;24.08;;;10.43;;
80320;SDS011;69633;47.066;15.450;2024-03-02T10:04:29;21.83;;;10.18;;
80320;SDS011;69633;47.066;15.450;2024-03-02T10:07:09;23.80;;;9.85;;
80320;SDS011;69633;47.066;15.450;2024-03-02T10:09:43;27.45;;;10.27;;
80320;SDS011;69633;47.066;15.450;2024-03-02T10:12:11;18.13;;;9.60;;
80320;SDS011;69633;47.066;15.450;2024-03-02T10:14:41;27.17;;;10.05;;
80320;SDS011;69633;47.066;15.450;2024-03-02T10:17:10;24.30;;;10.00;;
80320;SDS011;69633;47.066;15.450;2024-03-02T10:19:38;24.65;;;10.32;;
80320;SDS011;69633;47.066;15.450;2024-03-02T10:22:05;22.23;;;9.77;;
80320;SDS011;69633;47.066;15.450;2024-03-02T10:24:41;24.00;;;10.50;;
80320;SDS011;69633;47.066;15.450;2024-03-02T10:27:16;21.05;;;9.73;;
80320;SDS011;69633;47.066;15.450;2024-03-02T10:29:47;25.30;;;9.45;;
80320;SDS011;69633;47.066;15.450;2024-03-02T10:32:12;22.85;;;10.35;;
80320;SDS011;69633;47.066;15.450;2024-03-02T10:34:44;21.60;;;10.02;;
80320;SDS011;69633;47.066;15.450;2024-03-02T10:37:10;26.13;;;9.95;;
80320;SDS011;69633;47.066;15.450;2024-03-02T10:39:43;20.13;;;9.32;;
80320;SDS011;69633;47.066;15.450;2024-03-02T10:42:13;24.13;;;9.68;;
80320;SDS011;69633;47.066;15.450;2024-03-02T10:44:41;19.15;;;8.70;;
80320;SDS011;69633;47.066;15.450;2024-03-02T10:47:12;21.35;;;9.35;;
80320;SDS011;69633;47.066;15.450;2024-03-02T10:49:39;20.40;;;8.30;;
80320;SDS011;69633;47.066;15.450;2024-03-02T10:52:08;21.38;;;10.13;;
80320;SDS011;69633;47.066;15.450;2024-03-02T10:54:34;19.40;;;8.07;;
80320;SDS011;69633;47.066;15.450;2024-03-02T10:57:04;20.23;;;7.88;;
80320;SDS011;69633;47.066;15.450;2024-03-02T10:59:34;19.40;;;8.60;;
80320;SDS011;69633;47.066;15.450;2024-03-02T11:02:03;18.70;;;8.38;;
80320;SDS011;69633;47.066;15.450;2024-03-02T11:04:34;18.33;;;8.10;;
80320;SDS011;69633;47.066;15.450;2024-03-02T11:07:04;18.75;;;8.05;;
80320;SDS011;69633;47.066;15.450;2024-03-02T11:09:33;16.85;;;7.25;;
80320;SDS011;69633;47.066;15.450;2024-03-02T11:12:02;19.33;;;8.27;;
80320;SDS011;69633;47.066;15.450;2024-03-02T11:14:41;16.20;;;7.13;;
80320;SDS011;69633;47.066;15.450;2024-03-02T11:17:11;20.15;;;7.18;;
80320;SDS011;69633;47.066;15.450;2024-03-02T11:19:42;15.75;;;7.13;;
80320;SDS011;69633;47.066;15.450;2024-03-02T11:22:13;17.58;;;8.45;;
80320;SDS011;69633;47.066;15.450;2024-03-02T11:24:48;21.55;;;7.55;;
80320;SDS011;69633;47.066;15.450;2024-03-02T11:27:58;18.13;;;7.70;;
80320;SDS011;69633;47.066;15.450;2024-03-02T11:33:18;15.18;;;6.60;;
80320;SDS011;69633;47.066;15.450;2024-03-02T11:35:50;17.38;;;7.10;;
80320;SDS011;69633;47.066;15.450;2024-03-02T11:38:17;15.85;;;6.93;;
80320;SDS011;69633;47.066;15.450;2024-03-02T11:40:43;15.95;;;7.13;;
80320;SDS011;69633;47.066;15.450;2024-03-02T11:43:10;17.98;;;8.05;;
80320;SDS011;69633;47.066;15.450;2024-03-02T11:45:36;18.20;;;7.25;;
80320;SDS011;69633;47.066;15.450;2024-03-02T11:48:06;17.48;;;7.90;;
80320;SDS011;69633;47.066;15.450;2024-03-02T11:50:33;17.00;;;7.75;;
80320;SDS011;69633;47.066;15.450;2024-03-02T11:53:07;20.35;;;7.88;;
80320;SDS011;69633;47.066;15.450;2024-03-02T11:55:36;17.20;;;6.72;;
80320;SDS011;69633;47.066;15.450;2024-03-02T11:58:07;16.65;;;6.70;;
80320;SDS011;69633;47.066;15.450;2024-03-02T12:00:38;18.52;;;7.15;;
80320;SDS011;69633;47.066;15.450;2024-03-02T12:03:06;14.48;;;7.00;;
80320;SDS011;69633;47.066;15.450;2024-03-02T12:05:38;13.50;;;5.63;;
80320;SDS011;69633;47.066;15.450;2024-03-02T12:08:19;13.82;;;5.10;;
80320;SDS011;69633;47.066;15.450;2024-03-02T12:11:05;11.32;;;5.38;;
80320;SDS011;69633;47.066;15.450;2024-03-02T12:13:32;14.73;;;6.85;;
80320;SDS011;69633;47.066;15.450;2024-03-02T12:16:00;14.13;;;5.88;;
80320;SDS011;69633;47.066;15.450;2024-03-02T12:18:26;17.50;;;6.53;;
80320;SDS011;69633;47.066;15.450;2024-03-02T12:20:53;13.30;;;5.70;;
80320;SDS011;69633;47.066;15.450;2024-03-02T12:23:22;10.73;;;5.47;;
80320;SDS011;69633;47.066;15.450;2024-03-02T12:25:49;11.65;;;5.35;;
80320;SDS011;69633;47.066;15.450;2024-03-02T12:28:16;12.93;;;6.32;;
80320;SDS011;69633;47.066;15.450;2024-03-02T12:30:44;11.23;;;5.18;;
80320;SDS011;69633;47.066;15.450;2024-03-02T12:33:11;12.23;;;5.32;;
80320;SDS011;69633;47.066;15.450;2024-03-02T12:35:36;12.90;;;4.97;;
80320;SDS011;69633;47.066;15.450;2024-03-02T12:38:03;13.88;;;5.65;;
80320;SDS011;69633;47.066;15.450;2024-03-02T12:40:30;10.77;;;5.15;;
80320;SDS011;69633;47.066;15.450;2024-03-02T12:42:57;13.68;;;4.88;;
80320;SDS011;69633;47.066;15.450;2024-03-02T12:45:23;10.95;;;5.13;;
80320;SDS011;69633;47.066;15.450;2024-03-02T12:47:50;9.18;;;4.63;;
80320;SDS011;69633;47.066;15.450;2024-03-02T12:50:20;11.45;;;5.30;;
80320;SDS011;69633;47.066;15.450;2024-03-02T12:52:56;10.48;;;5.28;;
80320;SDS011;69633;47.066;15.450;2024-03-02T12:55:23;10.45;;;5.43;;
80320;SDS011;69633;47.066;15.450;2024-03-02T12:57:51;11.75;;;5.20;;
80320;SDS011;69633;47.066;15.450;2024-03-02T13:00:18;10.30;;;4.60;;
80320;SDS011;69633;47.066;15.450;2024-03-02T13:02:46;10.73;;;4.32;;
80320;SDS011;69633;47.066;15.450;2024-03-02T13:05:13;11.68;;;4.63;;
80320;SDS011;69633;47.066;15.450;2024-03-02T13:07:39;9.93;;;4.90;;
80320;SDS011;69633;47.066;15.450;2024-03-02T13:10:04;8.38;;;4.35;;
80320;SDS011;69633;47.066;15.450;2024-03-02T13:12:35;11.63;;;3.88;;
80320;SDS011;69633;47.066;15.450;2024-03-02T13:15:01;8.02;;;3.90;;
80320;SDS011;69633;47.066;15.450;2024-03-02T13:17:30;8.13;;;4.32;;
80320;SDS011;69633;47.066;15.450;2024-03-02T13:19:58;7.20;;;4.00;;
80320;SDS011;69633;47.066;15.450;2024-03-02T13:22:26;7.43;;;4.18;;
80320;SDS011;69633;47.066;15.450;2024-03-02T13:24:52;8.75;;;3.65;;
80320;SDS011;69633;47.066;15.450;2024-03-02T13:27:22;9.30;;;4.10;;
80320;SDS011;69633;47.066;15.450;2024-03-02T13:29:47;7.60;;;4.20;;
80320;SDS011;69633;47.066;15.450;2024-03-02T13:32:15;11.18;;;4.35;;
80320;SDS011;69633;47.066;15.450;2024-03-02T13:34:42;9.35;;;4.05;;
80320;SDS011;69633;47.066;15.450;2024-03-02T13:37:09;8.07;;;4.10;;
80320;SDS011;69633;47.066;15.450;2024-03-02T13:39:36;11.73;;;4.93;;
80320;SDS011;69633;47.066;15.450;2024-03-02T13:42:08;8.88;;;3.92;;
80320;SDS011;69633;47.066;15.450;2024-03-02T13:44:35;10.80;;;4.40;;
80320;SDS011;69633;47.066;15.450;2024-03-02T13:47:03;8.90;;;4.43;;
80320;SDS011;69633;47.066;15.450;2024-03-02T13:49:31;11.30;;;4.28;;
80320;SDS011;69633;47.066;15.450;2024-03-02T13:52:08;10.73;;;4.13;;
80320;SDS011;69633;47.066;15.450;2024-03-02T13:54:41;9.15;;;4.22;;
80320;SDS011;69633;47.066;15.450;2024-03-02T13:57:08;8.50;;;4.18;;
80320;SDS011;69633;47.066;15.450;2024-03-02T13:59:34;9.93;;;3.95;;
80320;SDS011;69633;47.066;15.450;2024-03-02T14:02:04;10.82;;;4.20;;
80320;SDS011;69633;47.066;15.450;2024-03-02T14:04:32;10.15;;;4.82;;
80320;SDS011;69633;47.066;15.450;2024-03-02T14:07:00;10.38;;;5.03;;
80320;SDS011;69633;47.066;15.450;2024-03-02T14:09:27;11.95;;;4.45;;
80320;SDS011;69633;47.066;15.450;2024-03-02T14:11:54;10.13;;;3.85;;
80320;SDS011;69633;47.066;15.450;2024-03-02T14:14:21;10.00;;;4.80;;
80320;SDS011;69633;47.066;15.450;2024-03-02T14:16:46;9.73;;;4.40;;
80320;SDS011;69633;47.066;15.450;2024-03-02T14:19:13;7.85;;;4.28;;
80320;SDS011;69633;47.066;15.450;2024-03-02T14:21:39;9.65;;;4.45;;
80320;SDS011;69633;47.066;15.450;2024-03-02T14:24:05;13.07;;;4.80;;
80320;SDS011;69633;47.066;15.450;2024-03-02T14:26:33;13.32;;;4.80;;
80320;SDS011;69633;47.066;15.450;2024-03-02T14:29:00;10.48;;;4.72;;
80320;SDS011;69633;47.066;15.450;2024-03-02T14:31:31;11.60;;;5.32;;
80320;SDS011;69633;47.066;15.450;2024-03-02T14:33:59;14.73;;;5.80;;